createdAt,value
2023-02-27T00:02:09.340Z,2.78
2023-02-27T00:04:37.151Z,2.45
2023-02-27T00:07:05.383Z,3.38
2023-02-27T00:09:34.041Z,1.75
2023-02-27T00:12:02.800Z,1.60
2023-02-27T00:14:30.764Z,3.13
2023-02-27T00:16:58.948Z,1.23
2023-02-27T00:19:27.160Z,1.10
2023-02-27T00:21:55.840Z,2.97
2023-02-27T00:24:23.758Z,3.22
2023-02-27T00:26:51.960Z,1.25
2023-02-27T00:29:20.090Z,1.02
2023-02-27T00:31:53.517Z,0.70
2023-02-27T00:34:21.566Z,0.70
2023-02-27T00:36:49.957Z,0.60
2023-02-27T00:39:17.936Z,3.40
2023-02-27T00:41:46.256Z,2.22
2023-02-27T00:44:14.216Z,0.45
2023-02-27T00:46:42.557Z,1.10
2023-02-27T00:49:10.504Z,0.68
2023-02-27T00:51:38.904Z,0.82
2023-02-27T00:54:06.826Z,2.40
2023-02-27T00:56:35.114Z,1.00
2023-02-27T00:59:03.553Z,2.47
2023-02-27T01:01:31.775Z,0.63
2023-02-27T01:03:59.747Z,0.60
2023-02-27T01:06:28.400Z,1.48
2023-02-27T01:08:56.319Z,1.75
2023-02-27T01:11:26.903Z,1.48
2023-02-27T01:13:55.160Z,2.05
2023-02-27T01:16:24.546Z,1.65
2023-02-27T01:18:52.986Z,1.73
2023-02-27T01:21:21.374Z,0.65
2023-02-27T01:23:49.762Z,1.45
2023-02-27T01:26:21.105Z,0.82
2023-02-27T01:28:49.067Z,0.90
2023-02-27T01:31:17.458Z,0.73
2023-02-27T01:33:45.396Z,1.92
2023-02-27T01:36:13.772Z,0.80
2023-02-27T01:38:43.412Z,0.93
2023-02-27T01:41:11.731Z,1.45
2023-02-27T01:44:00.124Z,2.42
2023-02-27T01:46:30.549Z,1.15
2023-02-27T01:49:07.999Z,0.88
2023-02-27T01:51:46.516Z,0.38
2023-02-27T01:54:19.801Z,1.00
2023-02-27T01:56:48.780Z,1.85
2023-02-27T01:59:17.426Z,4.55
2023-02-27T02:01:46.261Z,1.90
2023-02-27T02:04:27.609Z,0.68
2023-02-27T02:07:07.479Z,0.60
2023-02-27T02:09:42.128Z,1.02
2023-02-27T02:12:14.013Z,1.67
2023-02-27T02:14:44.724Z,2.60
2023-02-27T02:17:28.409Z,0.63
2023-02-27T02:20:24.681Z,0.70
2023-02-27T02:23:03.940Z,0.80
2023-02-27T02:25:56.710Z,1.40
2023-02-27T02:28:52.401Z,0.80
2023-02-27T02:31:32.427Z,6.07
2023-02-27T02:34:16.055Z,2.08
2023-02-27T02:36:56.312Z,1.42
2023-02-27T02:39:44.287Z,2.15
2023-02-27T02:42:34.500Z,0.95
2023-02-27T02:45:32.577Z,9.13
2023-02-27T02:48:17.710Z,0.95
2023-02-27T02:51:04.890Z,2.95
2023-02-27T02:53:51.452Z,1.45
2023-02-27T02:56:35.659Z,2.72
2023-02-27T02:59:15.445Z,1.15
2023-02-27T03:02:08.473Z,1.55
2023-02-27T03:04:39.693Z,3.22
2023-02-27T03:07:20.199Z,3.25
2023-02-27T03:10:11.909Z,3.33
2023-02-27T03:12:45.535Z,2.63
2023-02-27T03:15:30.768Z,1.23
2023-02-27T03:18:20.944Z,1.77
2023-02-27T03:21:00.039Z,1.75
2023-02-27T03:23:50.430Z,1.25
2023-02-27T03:26:23.740Z,1.60
2023-02-27T03:29:07.287Z,1.27
2023-02-27T03:31:47.072Z,1.15
2023-02-27T03:34:23.658Z,1.15
2023-02-27T03:37:11.754Z,1.17
2023-02-27T03:40:00.899Z,2.10
2023-02-27T03:42:48.395Z,1.15
2023-02-27T03:45:55.405Z,1.00
2023-02-27T03:48:23.768Z,2.30
2023-02-27T03:50:52.793Z,1.90
2023-02-27T03:53:34.253Z,1.58
2023-02-27T03:56:05.979Z,0.85
2023-02-27T03:58:34.242Z,1.67
2023-02-27T04:01:03.195Z,0.65
2023-02-27T04:03:36.100Z,1.63
2023-02-27T04:06:25.273Z,1.25
2023-02-27T04:09:11.443Z,1.55
2023-02-27T04:12:10.597Z,2.85
2023-02-27T04:14:41.475Z,0.80
2023-02-27T04:17:18.478Z,1.85
2023-02-27T04:20:05.393Z,2.80
2023-02-27T04:22:36.378Z,3.67
2023-02-27T04:25:19.512Z,1.08
2023-02-27T04:27:57.864Z,1.05
2023-02-27T04:30:25.969Z,0.60
2023-02-27T04:33:32.278Z,0.82
2023-02-27T04:36:13.431Z,1.00
2023-02-27T04:38:46.181Z,1.23
2023-02-27T04:41:22.011Z,1.00
2023-02-27T04:43:52.723Z,0.82
2023-02-27T04:46:25.894Z,1.30
2023-02-27T04:49:17.303Z,1.48
2023-02-27T04:51:58.544Z,0.73
2023-02-27T04:54:41.622Z,0.80
2023-02-27T04:57:16.806Z,0.95
2023-02-27T04:59:51.888Z,0.85
2023-02-27T05:02:27.666Z,0.82
2023-02-27T05:05:01.135Z,2.30
2023-02-27T05:07:39.476Z,0.83
2023-02-27T05:10:26.743Z,0.70
2023-02-27T05:13:02.922Z,4.72
2023-02-27T05:15:39.314Z,2.83
2023-02-27T05:18:15.140Z,6.18
2023-02-27T05:20:54.693Z,1.05
2023-02-27T05:23:31.766Z,1.10
2023-02-27T05:26:18.836Z,1.00
2023-02-27T05:29:05.734Z,4.68
2023-02-27T05:31:52.473Z,1.33
2023-02-27T05:34:30.337Z,1.00
2023-02-27T05:37:42.204Z,0.52
2023-02-27T05:40:15.222Z,0.85
2023-02-27T05:42:49.655Z,2.65
2023-02-27T05:45:25.482Z,1.33
2023-02-27T05:48:01.201Z,3.15
2023-02-27T05:50:32.627Z,1.42
2023-02-27T05:53:05.630Z,8.60
2023-02-27T05:55:44.961Z,0.50
2023-02-27T05:58:25.140Z,1.08
2023-02-27T06:01:07.354Z,0.90
2023-02-27T06:03:38.040Z,1.13
2023-02-27T06:06:09.323Z,0.90
2023-02-27T06:08:37.756Z,2.33
2023-02-27T06:11:05.981Z,1.15
2023-02-27T06:13:34.300Z,2.30
2023-02-27T06:16:02.657Z,0.95
2023-02-27T06:18:31.004Z,1.13
2023-02-27T06:20:58.908Z,2.10
2023-02-27T06:23:27.262Z,1.70
2023-02-27T06:25:55.264Z,4.53
2023-02-27T06:28:23.526Z,0.75
2023-02-27T06:30:55.800Z,0.95
2023-02-27T06:33:26.217Z,2.15
2023-02-27T06:35:54.145Z,1.83
2023-02-27T06:38:22.558Z,1.73
2023-02-27T06:40:51.893Z,2.88
2023-02-27T06:43:23.385Z,1.05
2023-02-27T06:45:55.058Z,1.40
2023-02-27T06:48:23.566Z,2.35
2023-02-27T06:50:53.968Z,1.27
2023-02-27T06:53:23.445Z,1.40
2023-02-27T06:55:51.588Z,5.93
2023-02-27T06:58:20.054Z,5.10
2023-02-27T07:00:48.174Z,2.65
2023-02-27T07:03:16.681Z,1.17
2023-02-27T07:05:45.240Z,0.68
2023-02-27T07:08:13.510Z,1.90
2023-02-27T07:10:44.212Z,7.30
2023-02-27T07:13:16.090Z,1.58
2023-02-27T07:15:45.291Z,1.73
2023-02-27T07:18:13.613Z,3.53
2023-02-27T07:20:41.601Z,2.33
2023-02-27T07:23:10.957Z,7.43
2023-02-27T07:25:38.913Z,2.17
2023-02-27T07:28:07.313Z,5.20
2023-02-27T07:30:35.421Z,4.18
2023-02-27T07:33:04.048Z,0.85
2023-02-27T07:35:32.040Z,4.55
2023-02-27T07:38:00.322Z,3.63
2023-02-27T07:40:28.373Z,4.30
2023-02-27T07:42:56.622Z,3.08
2023-02-27T07:45:24.627Z,8.60
2023-02-27T07:47:52.974Z,2.00
2023-02-27T07:50:21.018Z,6.50
2023-02-27T07:52:49.265Z,2.75
2023-02-27T07:55:17.238Z,3.72
2023-02-27T07:57:46.066Z,2.78
2023-02-27T08:00:15.323Z,1.00
2023-02-27T08:02:43.798Z,3.38
2023-02-27T08:05:11.936Z,1.00
2023-02-27T08:07:40.450Z,5.88
2023-02-27T08:10:08.921Z,4.55
2023-02-27T08:12:37.238Z,5.28
2023-02-27T08:15:06.123Z,1.73
2023-02-27T08:17:34.728Z,2.13
2023-02-27T08:20:04.655Z,13.23
2023-02-27T08:22:33.273Z,14.85
2023-02-27T08:25:01.582Z,2.17
2023-02-27T08:27:29.969Z,4.50
2023-02-27T08:29:58.060Z,1.00
2023-02-27T08:32:26.689Z,4.15
2023-02-27T08:34:58.078Z,3.75
2023-02-27T08:37:26.564Z,1.27
2023-02-27T08:39:54.733Z,2.85
2023-02-27T08:42:24.519Z,7.47
2023-02-27T08:44:54.213Z,2.70
2023-02-27T08:47:22.564Z,4.45
2023-02-27T08:49:50.525Z,6.85
2023-02-27T08:52:18.944Z,9.45
2023-02-27T08:54:47.015Z,1.35
2023-02-27T08:57:15.526Z,5.78
2023-02-27T08:59:43.566Z,3.95
2023-02-27T09:02:11.898Z,1.40
2023-02-27T09:04:40.192Z,10.52
2023-02-27T09:07:08.554Z,6.20
2023-02-27T09:09:36.515Z,1.83
2023-02-27T09:12:05.420Z,2.25
2023-02-27T09:14:33.385Z,3.70
2023-02-27T09:17:01.780Z,3.67
2023-02-27T09:19:29.807Z,3.83
2023-02-27T09:21:58.474Z,1.85
2023-02-27T09:24:26.672Z,2.90
2023-02-27T09:26:55.054Z,3.55
2023-02-27T09:29:24.151Z,1.20
2023-02-27T09:31:52.564Z,3.08
2023-02-27T09:34:20.608Z,6.22
2023-02-27T09:36:48.984Z,9.80
2023-02-27T09:39:17.515Z,11.13
2023-02-27T09:42:05.502Z,5.78
2023-02-27T09:44:47.128Z,4.95
2023-02-27T09:47:21.630Z,4.50
2023-02-27T09:49:58.218Z,8.35
2023-02-27T09:52:28.427Z,14.32
2023-02-27T09:54:56.809Z,7.10
2023-02-27T09:57:52.348Z,1.48
2023-02-27T10:00:49.597Z,11.38
2023-02-27T10:03:21.868Z,6.93
2023-02-27T10:06:07.095Z,2.78
2023-02-27T10:08:46.439Z,2.40
2023-02-27T10:11:19.528Z,5.00
2023-02-27T10:14:10.478Z,8.15
2023-02-27T10:16:39.741Z,12.68
2023-02-27T10:19:15.458Z,5.38
2023-02-27T10:21:50.693Z,0.90
2023-02-27T10:24:29.702Z,3.20
2023-02-27T10:27:00.199Z,1.38
2023-02-27T10:29:42.040Z,4.57
2023-02-27T10:32:24.558Z,4.88
2023-02-27T10:35:16.371Z,5.85
2023-02-27T10:37:50.439Z,2.97
2023-02-27T10:40:20.962Z,1.25
2023-02-27T10:42:50.233Z,3.47
2023-02-27T10:45:18.677Z,3.33
2023-02-27T10:47:46.867Z,1.60
2023-02-27T10:50:32.364Z,1.80
2023-02-27T10:53:02.733Z,4.57
2023-02-27T10:55:41.040Z,3.88
2023-02-27T10:58:09.538Z,1.70
2023-02-27T11:00:45.551Z,2.33
2023-02-27T11:03:35.923Z,3.35
2023-02-27T11:06:07.362Z,1.95
2023-02-27T11:08:35.706Z,4.80
2023-02-27T11:11:09.948Z,2.10
2023-02-27T11:16:17.996Z,1.40
2023-02-27T11:18:48.407Z,3.70
2023-02-27T11:21:23.846Z,2.40
2023-02-27T11:24:11.453Z,2.28
2023-02-27T11:26:53.532Z,2.10
2023-02-27T11:29:21.837Z,1.58
2023-02-27T11:32:15.327Z,1.75
2023-02-27T11:34:51.789Z,10.38
2023-02-27T11:37:29.576Z,1.70
2023-02-27T11:40:16.530Z,7.70
2023-02-27T11:42:53.619Z,1.35
2023-02-27T11:46:04.971Z,2.53
2023-02-27T11:48:32.836Z,1.60
2023-02-27T11:51:03.747Z,2.65
2023-02-27T11:54:09.684Z,1.42
2023-02-27T11:56:46.458Z,2.15
2023-02-27T11:59:42.456Z,1.85
2023-02-27T12:02:16.371Z,2.92
2023-02-27T12:04:57.849Z,1.95
2023-02-27T12:07:34.553Z,4.70
2023-02-27T12:10:25.180Z,2.28
2023-02-27T12:13:01.999Z,3.67
2023-02-27T12:15:42.638Z,2.20
2023-02-27T12:18:18.811Z,5.50
2023-02-27T12:21:25.617Z,6.82
2023-02-27T12:24:15.271Z,2.45
2023-02-27T12:26:46.727Z,5.15
2023-02-27T12:29:34.006Z,2.72
2023-02-27T12:32:14.490Z,4.32
2023-02-27T12:34:54.742Z,2.55
2023-02-27T12:37:29.200Z,7.38
2023-02-27T12:40:00.919Z,2.72
2023-02-27T12:43:11.083Z,6.57
2023-02-27T12:46:07.437Z,4.88
2023-02-27T12:48:44.840Z,5.88
2023-02-27T12:51:30.178Z,5.68
2023-02-27T12:54:19.265Z,4.18
2023-02-27T12:57:01.739Z,3.63
2023-02-27T12:59:54.003Z,3.85
2023-02-27T13:02:49.146Z,2.15
2023-02-27T13:05:33.233Z,3.92
2023-02-27T13:08:20.190Z,2.25
2023-02-27T13:11:22.242Z,4.18
2023-02-27T13:14:24.963Z,7.80
2023-02-27T13:17:05.546Z,6.15
2023-02-27T13:19:53.160Z,4.93
2023-02-27T13:22:30.795Z,3.22
2023-02-27T13:25:02.601Z,2.20
2023-02-27T13:27:40.592Z,4.53
2023-02-27T13:30:17.030Z,6.13
2023-02-27T13:32:48.605Z,10.82
2023-02-27T13:35:29.223Z,5.15
2023-02-27T13:38:05.513Z,2.45
2023-02-27T13:40:39.586Z,9.98
2023-02-27T13:43:36.092Z,9.65
2023-02-27T13:46:28.579Z,4.88
2023-02-27T13:49:28.870Z,2.67
2023-02-27T13:52:02.375Z,2.08
2023-02-27T13:54:41.337Z,6.50
2023-02-27T13:57:21.705Z,5.97
2023-02-27T13:59:58.012Z,5.50
2023-02-27T14:02:56.501Z,5.22
2023-02-27T14:05:40.665Z,2.58
2023-02-27T14:08:12.057Z,4.70
2023-02-27T14:10:51.539Z,7.40
2023-02-27T14:13:44.144Z,9.02
2023-02-27T14:16:41.389Z,12.20
2023-02-27T14:19:15.242Z,6.32
2023-02-27T14:22:16.945Z,7.57
2023-02-27T14:25:01.576Z,5.22
2023-02-27T14:27:40.400Z,22.58
2023-02-27T14:30:27.287Z,7.22
2023-02-27T14:33:01.687Z,2.53
2023-02-27T14:35:30.963Z,3.83
2023-02-27T14:38:08.425Z,4.47
2023-02-27T14:40:48.903Z,8.70
2023-02-27T14:43:35.085Z,6.22
2023-02-27T14:46:23.045Z,3.63
2023-02-27T14:49:00.739Z,8.38
2023-02-27T14:51:32.698Z,3.90
2023-02-27T14:54:08.010Z,10.02
2023-02-27T14:56:36.247Z,3.03
2023-02-27T14:59:25.255Z,15.25
2023-02-27T15:01:56.596Z,3.67
2023-02-27T15:04:29.350Z,6.53
2023-02-27T15:06:59.896Z,11.20
2023-02-27T15:09:38.637Z,7.25
2023-02-27T15:12:06.914Z,10.20
2023-02-27T15:14:39.253Z,9.40
2023-02-27T15:17:22.141Z,4.80
2023-02-27T15:19:57.115Z,7.72
2023-02-27T15:22:39.553Z,5.32
2023-02-27T15:25:27.899Z,2.83
2023-02-27T15:28:01.256Z,3.65
2023-02-27T15:30:33.697Z,6.93
2023-02-27T15:33:03.056Z,5.43
2023-02-27T15:35:37.229Z,4.65
2023-02-27T15:38:06.416Z,6.95
2023-02-27T15:40:36.480Z,7.18
2023-02-27T15:43:04.968Z,12.32
2023-02-27T15:45:35.969Z,26.15
2023-02-27T15:48:05.293Z,29.90
2023-02-27T15:50:37.597Z,17.33
2023-02-27T15:53:08.426Z,16.27
2023-02-27T15:55:43.895Z,13.45
2023-02-27T15:58:31.080Z,17.25
2023-02-27T16:01:09.386Z,6.00
2023-02-27T16:03:40.648Z,10.27
2023-02-27T16:06:18.502Z,5.10
2023-02-27T16:08:57.292Z,8.98
2023-02-27T16:11:31.024Z,6.75
2023-02-27T16:14:00.133Z,8.00
2023-02-27T16:16:35.562Z,4.45
2023-02-27T16:19:22.908Z,4.50
2023-02-27T16:22:06.932Z,5.60
2023-02-27T16:24:34.868Z,4.78
2023-02-27T16:27:03.376Z,7.70
2023-02-27T16:29:41.389Z,5.07
2023-02-27T16:32:26.221Z,17.23
2023-02-27T16:35:07.113Z,8.25
2023-02-27T16:37:38.734Z,14.18
2023-02-27T16:40:14.935Z,6.55
2023-02-27T16:42:44.393Z,12.50
2023-02-27T16:45:27.065Z,12.52
2023-02-27T16:47:58.701Z,5.32
2023-02-27T16:50:35.876Z,4.50
2023-02-27T16:53:04.150Z,4.15
2023-02-27T16:55:33.750Z,11.55
2023-02-27T16:58:02.177Z,7.07
2023-02-27T17:00:30.199Z,11.93
2023-02-27T17:02:58.580Z,11.88
2023-02-27T17:05:26.567Z,5.80
2023-02-27T17:07:55.084Z,13.30
2023-02-27T17:10:24.989Z,8.77
2023-02-27T17:12:53.664Z,7.30
2023-02-27T17:15:22.195Z,6.32
2023-02-27T17:17:50.493Z,5.22
2023-02-27T17:20:18.443Z,6.15
2023-02-27T17:22:46.697Z,7.90
2023-02-27T17:25:15.153Z,13.27
2023-02-27T17:27:43.992Z,12.40
2023-02-27T17:30:14.111Z,15.25
2023-02-27T17:32:42.098Z,15.50
2023-02-27T17:35:11.221Z,6.88
2023-02-27T17:37:39.232Z,7.82
2023-02-27T17:40:08.458Z,6.25
2023-02-27T17:42:37.189Z,8.32
2023-02-27T17:45:07.355Z,7.70
2023-02-27T17:47:36.228Z,12.57
2023-02-27T17:50:05.724Z,15.95
2023-02-27T17:52:37.633Z,6.30
2023-02-27T17:55:08.805Z,11.73
2023-02-27T17:57:38.143Z,8.80
2023-02-27T18:00:09.239Z,9.40
2023-02-27T18:02:37.411Z,7.93
2023-02-27T18:05:06.828Z,7.13
2023-02-27T18:07:34.953Z,9.52
2023-02-27T18:10:05.966Z,7.82
2023-02-27T18:12:34.503Z,10.50
2023-02-27T18:15:04.186Z,6.60
2023-02-27T18:17:32.448Z,6.82
2023-02-27T18:20:00.861Z,11.85
2023-02-27T18:22:30.162Z,7.03
2023-02-27T18:24:59.237Z,13.07
2023-02-27T18:27:28.257Z,11.00
2023-02-27T18:29:57.903Z,8.90
2023-02-27T18:32:25.924Z,8.98
2023-02-27T18:34:54.392Z,7.45
2023-02-27T18:37:22.433Z,6.50
2023-02-27T18:39:50.758Z,9.43
2023-02-27T18:42:18.709Z,7.72
2023-02-27T18:44:47.889Z,8.00
2023-02-27T18:47:15.852Z,11.10
2023-02-27T18:49:44.078Z,8.85
2023-02-27T18:52:12.297Z,10.57
2023-02-27T18:54:42.579Z,16.45
2023-02-27T18:57:10.806Z,11.48
2023-02-27T18:59:41.567Z,7.18
2023-02-27T19:02:21.596Z,8.10
2023-02-27T19:04:50.000Z,12.43
2023-02-27T19:07:18.842Z,12.90
2023-02-27T19:09:47.480Z,21.52
2023-02-27T19:12:15.679Z,8.68
2023-02-27T19:14:44.162Z,8.10
2023-02-27T19:17:12.417Z,11.75
2023-02-27T19:19:40.720Z,11.13
2023-02-27T19:22:08.685Z,9.75
2023-02-27T19:24:37.061Z,13.63
2023-02-27T19:27:05.122Z,12.55
2023-02-27T19:29:33.483Z,13.23
2023-02-27T19:32:02.350Z,11.43
2023-02-27T19:34:30.700Z,16.55
2023-02-27T19:36:58.986Z,8.43
2023-02-27T19:39:27.806Z,9.48
2023-02-27T19:41:56.687Z,15.93
2023-02-27T19:44:26.702Z,9.63
2023-02-27T19:46:54.855Z,9.10
2023-02-27T19:49:23.201Z,11.77
2023-02-27T19:51:51.213Z,8.90
2023-02-27T19:54:19.830Z,9.07
2023-02-27T19:56:48.025Z,7.45
2023-02-27T19:59:18.021Z,9.85
2023-02-27T20:01:46.049Z,11.43
2023-02-27T20:04:14.650Z,17.50
2023-02-27T20:06:45.181Z,13.68
2023-02-27T20:09:16.691Z,14.27
2023-02-27T20:11:46.157Z,21.73
2023-02-27T20:14:16.365Z,12.90
2023-02-27T20:16:45.385Z,12.18
2023-02-27T20:19:16.651Z,10.38
2023-02-27T20:21:46.596Z,24.45
2023-02-27T20:24:18.377Z,9.65
2023-02-27T20:26:50.146Z,12.68
2023-02-27T20:29:21.964Z,12.45
2023-02-27T20:31:53.018Z,22.83
2023-02-27T20:34:26.035Z,10.25
2023-02-27T20:36:56.096Z,12.80
2023-02-27T20:39:25.949Z,13.13
2023-02-27T20:41:54.820Z,14.00
2023-02-27T20:44:24.021Z,21.02
2023-02-27T20:46:52.339Z,11.32
2023-02-27T20:49:22.392Z,12.13
2023-02-27T20:51:50.643Z,14.93
2023-02-27T20:54:20.921Z,20.55
2023-02-27T20:56:57.624Z,12.07
2023-02-27T20:59:26.964Z,21.35
2023-02-27T21:01:55.745Z,12.30
2023-02-27T21:04:43.042Z,21.63
2023-02-27T21:07:14.572Z,12.00
2023-02-27T21:09:46.108Z,8.27
2023-02-27T21:12:14.607Z,14.35
2023-02-27T21:14:44.634Z,13.32
2023-02-27T21:17:13.976Z,14.18
2023-02-27T21:19:42.677Z,11.13
2023-02-27T21:22:11.536Z,13.02
2023-02-27T21:24:40.351Z,14.70
2023-02-27T21:27:08.623Z,15.32
2023-02-27T21:29:37.950Z,12.45
2023-02-27T21:32:07.833Z,17.08
2023-02-27T21:34:36.545Z,10.57
2023-02-27T21:37:06.604Z,10.57
2023-02-27T21:39:35.183Z,15.85
2023-02-27T21:42:03.413Z,18.00
2023-02-27T21:44:32.323Z,14.93
2023-02-27T21:47:10.202Z,10.20
2023-02-27T21:49:39.654Z,13.35
2023-02-27T21:52:07.924Z,14.90
2023-02-27T21:54:36.536Z,12.00
2023-02-27T21:57:05.169Z,11.70
2023-02-27T21:59:33.793Z,18.92
2023-02-27T22:02:02.303Z,12.05
2023-02-27T22:04:31.371Z,17.58
2023-02-27T22:06:59.613Z,16.40
2023-02-27T22:09:28.341Z,13.65
2023-02-27T22:11:56.695Z,13.45
2023-02-27T22:14:26.444Z,12.93
2023-02-27T22:16:54.663Z,25.73
2023-02-27T22:19:23.695Z,10.50
2023-02-27T22:21:52.029Z,15.63
2023-02-27T22:24:20.880Z,14.52
2023-02-27T22:26:50.529Z,12.32
2023-02-27T22:29:19.193Z,15.40
2023-02-27T22:31:47.575Z,12.25
2023-02-27T22:34:18.888Z,15.15
2023-02-27T22:36:49.092Z,15.65
2023-02-27T22:39:18.068Z,11.82
2023-02-27T22:41:46.486Z,12.60
2023-02-27T22:44:17.355Z,9.13
2023-02-27T22:46:47.940Z,11.73
2023-02-27T22:49:22.641Z,12.70
2023-02-27T22:51:52.281Z,9.25
2023-02-27T22:54:23.122Z,10.60
2023-02-27T22:56:53.525Z,14.98
2023-02-27T22:59:22.831Z,13.75
2023-02-27T23:01:52.445Z,10.10
2023-02-27T23:04:22.719Z,10.98
2023-02-27T23:06:52.827Z,10.80
2023-02-27T23:09:27.551Z,7.18
2023-02-27T23:11:56.138Z,10.45
2023-02-27T23:14:24.847Z,9.38
2023-02-27T23:16:53.062Z,7.93
2023-02-27T23:19:22.942Z,7.18
2023-02-27T23:21:51.765Z,7.25
2023-02-27T23:24:20.493Z,8.27
2023-02-27T23:26:51.265Z,6.90
2023-02-27T23:29:20.627Z,6.70
2023-02-27T23:31:48.990Z,9.13
2023-02-27T23:34:17.882Z,5.10
2023-02-27T23:36:46.112Z,8.90
2023-02-27T23:39:14.635Z,8.63
2023-02-27T23:41:43.248Z,8.45
2023-02-27T23:44:11.765Z,5.85
2023-02-27T23:46:40.873Z,7.43
2023-02-27T23:49:09.501Z,9.00
2023-02-27T23:51:37.841Z,8.48
2023-02-27T23:54:06.570Z,9.55
2023-02-27T23:56:34.903Z,6.00
2023-02-27T23:59:06.318Z,8.38
